sensor_id;sensor_type;location;lat;lon;timestamp;P1;durP1;ratioP1;P2;durP2;ratioP2
51901;SDS011;37929;53.218;6.548;2022-07-24T00:01:15;4.30;;;3.90;;
51901;SDS011;37929;53.218;6.548;2022-07-24T00:03:41;5.28;;;3.90;;
51901;SDS011;37929;53.218;6.548;2022-07-24T00:06:06;4.60;;;3.65;;
51901;SDS011;37929;53.218;6.548;2022-07-24T00:08:32;4.65;;;3.53;;
51901;SDS011;37929;53.218;6.548;2022-07-24T00:10:58;6.38;;;3.63;;
51901;SDS011;37929;53.218;6.548;2022-07-24T00:13:24;6.20;;;3.67;;
51901;SDS011;37929;53.218;6.548;2022-07-24T00:15:53;7.47;;;3.88;;
51901;SDS011;37929;53.218;6.548;2022-07-24T00:18:19;5.32;;;3.88;;
51901;SDS011;37929;53.218;6.548;2022-07-24T00:20:44;5.82;;;3.90;;
51901;SDS011;37929;53.218;6.548;2022-07-24T00:23:11;5.65;;;3.95;;
51901;SDS011;37929;53.218;6.548;2022-07-24T00:25:39;5.32;;;4.05;;
51901;SDS011;37929;53.218;6.548;2022-07-24T00:28:05;5.70;;;3.75;;
51901;SDS011;37929;53.218;6.548;2022-07-24T00:30:31;7.53;;;3.72;;
51901;SDS011;37929;53.218;6.548;2022-07-24T00:32:57;4.25;;;3.85;;
51901;SDS011;37929;53.218;6.548;2022-07-24T00:35:25;6.60;;;4.30;;
51901;SDS011;37929;53.218;6.548;2022-07-24T00:37:51;4.95;;;4.10;;
51901;SDS011;37929;53.218;6.548;2022-07-24T00:40:18;4.78;;;4.20;;
51901;SDS011;37929;53.218;6.548;2022-07-24T00:42:44;5.00;;;4.50;;
51901;SDS011;37929;53.218;6.548;2022-07-24T00:45:13;5.82;;;4.70;;
51901;SDS011;37929;53.218;6.548;2022-07-24T00:47:39;7.38;;;4.60;;
51901;SDS011;37929;53.218;6.548;2022-07-24T00:50:05;5.50;;;4.03;;
51901;SDS011;37929;53.218;6.548;2022-07-24T00:52:31;5.32;;;4.68;;
51901;SDS011;37929;53.218;6.548;2022-07-24T00:55:00;4.68;;;4.18;;
51901;SDS011;37929;53.218;6.548;2022-07-24T00:57:27;5.60;;;4.30;;
51901;SDS011;37929;53.218;6.548;2022-07-24T00:59:53;6.43;;;4.13;;
51901;SDS011;37929;53.218;6.548;2022-07-24T01:02:29;4.53;;;3.97;;
51901;SDS011;37929;53.218;6.548;2022-07-24T01:04:55;5.55;;;4.43;;
51901;SDS011;37929;53.218;6.548;2022-07-24T01:07:26;5.13;;;4.10;;
51901;SDS011;37929;53.218;6.548;2022-07-24T01:09:52;4.55;;;4.07;;
51901;SDS011;37929;53.218;6.548;2022-07-24T01:12:18;6.55;;;4.32;;
51901;SDS011;37929;53.218;6.548;2022-07-24T01:14:47;7.47;;;4.43;;
51901;SDS011;37929;53.218;6.548;2022-07-24T01:17:12;5.57;;;3.97;;
51901;SDS011;37929;53.218;6.548;2022-07-24T01:19:41;6.57;;;4.05;;
51901;SDS011;37929;53.218;6.548;2022-07-24T01:22:10;5.40;;;3.80;;
51901;SDS011;37929;53.218;6.548;2022-07-24T01:24:36;7.25;;;4.10;;
51901;SDS011;37929;53.218;6.548;2022-07-24T01:27:05;6.00;;;4.18;;
51901;SDS011;37929;53.218;6.548;2022-07-24T01:29:32;5.55;;;4.57;;
51901;SDS011;37929;53.218;6.548;2022-07-24T01:32:00;5.53;;;4.32;;
51901;SDS011;37929;53.218;6.548;2022-07-24T01:34:30;5.85;;;4.22;;
51901;SDS011;37929;53.218;6.548;2022-07-24T01:36:56;6.53;;;4.20;;
51901;SDS011;37929;53.218;6.548;2022-07-24T01:39:22;8.10;;;4.25;;
51901;SDS011;37929;53.218;6.548;2022-07-24T01:41:48;5.00;;;3.80;;
51901;SDS011;37929;53.218;6.548;2022-07-24T01:44:14;6.88;;;4.00;;
51901;SDS011;37929;53.218;6.548;2022-07-24T01:46:40;5.38;;;4.18;;
51901;SDS011;37929;53.218;6.548;2022-07-24T01:49:05;4.50;;;4.03;;
51901;SDS011;37929;53.218;6.548;2022-07-24T01:51:51;5.15;;;3.90;;
51901;SDS011;37929;53.218;6.548;2022-07-24T01:54:18;5.43;;;4.38;;
51901;SDS011;37929;53.218;6.548;2022-07-24T01:56:43;5.63;;;4.20;;
51901;SDS011;37929;53.218;6.548;2022-07-24T01:59:09;5.93;;;4.03;;
51901;SDS011;37929;53.218;6.548;2022-07-24T02:01:35;4.72;;;3.55;;
51901;SDS011;37929;53.218;6.548;2022-07-24T02:04:01;5.65;;;4.00;;
51901;SDS011;37929;53.218;6.548;2022-07-24T02:06:27;5.45;;;4.10;;
51901;SDS011;37929;53.218;6.548;2022-07-24T02:08:53;5.22;;;4.38;;
51901;SDS011;37929;53.218;6.548;2022-07-24T02:11:18;4.32;;;3.70;;
51901;SDS011;37929;53.218;6.548;2022-07-24T02:13:50;5.35;;;4.55;;
51901;SDS011;37929;53.218;6.548;2022-07-24T02:16:17;6.15;;;4.28;;
51901;SDS011;37929;53.218;6.548;2022-07-24T02:18:43;5.53;;;4.30;;
51901;SDS011;37929;53.218;6.548;2022-07-24T02:21:12;4.45;;;4.00;;
51901;SDS011;37929;53.218;6.548;2022-07-24T02:23:38;6.38;;;4.50;;
51901;SDS011;37929;53.218;6.548;2022-07-24T02:26:03;5.45;;;4.60;;
51901;SDS011;37929;53.218;6.548;2022-07-24T02:28:29;5.90;;;4.75;;
51901;SDS011;37929;53.218;6.548;2022-07-24T02:30:55;6.22;;;4.70;;
51901;SDS011;37929;53.218;6.548;2022-07-24T02:33:21;5.82;;;4.45;;
51901;SDS011;37929;53.218;6.548;2022-07-24T02:35:50;6.95;;;4.30;;
51901;SDS011;37929;53.218;6.548;2022-07-24T02:38:16;5.63;;;4.70;;
51901;SDS011;37929;53.218;6.548;2022-07-24T02:40:41;7.20;;;4.70;;
51901;SDS011;37929;53.218;6.548;2022-07-24T02:43:07;7.03;;;5.15;;
51901;SDS011;37929;53.218;6.548;2022-07-24T02:45:33;6.05;;;4.90;;
51901;SDS011;37929;53.218;6.548;2022-07-24T02:47:59;5.45;;;4.95;;
51901;SDS011;37929;53.218;6.548;2022-07-24T02:50:29;8.90;;;5.20;;
51901;SDS011;37929;53.218;6.548;2022-07-24T02:52:57;5.85;;;5.25;;
51901;SDS011;37929;53.218;6.548;2022-07-24T02:55:23;5.78;;;4.88;;
51901;SDS011;37929;53.218;6.548;2022-07-24T02:57:49;5.82;;;5.10;;
51901;SDS011;37929;53.218;6.548;2022-07-24T03:00:15;5.40;;;4.55;;
51901;SDS011;37929;53.218;6.548;2022-07-24T03:02:42;6.97;;;5.20;;
51901;SDS011;37929;53.218;6.548;2022-07-24T03:05:09;6.95;;;5.60;;
51901;SDS011;37929;53.218;6.548;2022-07-24T03:07:35;7.43;;;5.30;;
51901;SDS011;37929;53.218;6.548;2022-07-24T03:10:06;6.40;;;5.00;;
51901;SDS011;37929;53.218;6.548;2022-07-24T03:12:36;6.15;;;5.10;;
51901;SDS011;37929;53.218;6.548;2022-07-24T03:15:02;7.00;;;5.30;;
51901;SDS011;37929;53.218;6.548;2022-07-24T03:17:28;6.10;;;5.07;;
51901;SDS011;37929;53.218;6.548;2022-07-24T03:19:54;6.38;;;5.10;;
51901;SDS011;37929;53.218;6.548;2022-07-24T03:22:20;6.07;;;5.45;;
51901;SDS011;37929;53.218;6.548;2022-07-24T03:24:46;7.18;;;5.40;;
51901;SDS011;37929;53.218;6.548;2022-07-24T03:27:11;7.07;;;5.32;;
51901;SDS011;37929;53.218;6.548;2022-07-24T03:29:37;7.28;;;5.95;;
51901;SDS011;37929;53.218;6.548;2022-07-24T03:32:03;6.45;;;5.80;;
51901;SDS011;37929;53.218;6.548;2022-07-24T03:34:29;7.15;;;5.82;;
51901;SDS011;37929;53.218;6.548;2022-07-24T03:36:55;5.72;;;5.13;;
51901;SDS011;37929;53.218;6.548;2022-07-24T03:39:21;7.07;;;5.45;;
51901;SDS011;37929;53.218;6.548;2022-07-24T03:41:50;5.60;;;5.10;;
51901;SDS011;37929;53.218;6.548;2022-07-24T03:44:16;6.65;;;5.32;;
51901;SDS011;37929;53.218;6.548;2022-07-24T03:46:42;7.82;;;6.15;;
51901;SDS011;37929;53.218;6.548;2022-07-24T03:49:08;6.53;;;5.60;;
51901;SDS011;37929;53.218;6.548;2022-07-24T03:51:34;6.47;;;5.63;;
51901;SDS011;37929;53.218;6.548;2022-07-24T03:54:02;6.68;;;5.35;;
51901;SDS011;37929;53.218;6.548;2022-07-24T03:56:29;8.38;;;6.25;;
51901;SDS011;37929;53.218;6.548;2022-07-24T03:58:55;7.38;;;5.43;;
51901;SDS011;37929;53.218;6.548;2022-07-24T04:01:21;7.18;;;5.90;;
51901;SDS011;37929;53.218;6.548;2022-07-24T04:03:51;9.50;;;6.10;;
51901;SDS011;37929;53.218;6.548;2022-07-24T04:06:23;6.57;;;5.88;;
51901;SDS011;37929;53.218;6.548;2022-07-24T04:08:49;7.80;;;6.38;;
51901;SDS011;37929;53.218;6.548;2022-07-24T04:11:15;6.40;;;5.80;;
51901;SDS011;37929;53.218;6.548;2022-07-24T04:13:41;8.82;;;6.10;;
51901;SDS011;37929;53.218;6.548;2022-07-24T04:16:06;8.25;;;6.55;;
51901;SDS011;37929;53.218;6.548;2022-07-24T04:18:32;7.13;;;6.43;;
51901;SDS011;37929;53.218;6.548;2022-07-24T04:20:58;8.45;;;5.95;;
51901;SDS011;37929;53.218;6.548;2022-07-24T04:23:24;6.63;;;5.97;;
51901;SDS011;37929;53.218;6.548;2022-07-24T04:25:52;6.90;;;6.00;;
51901;SDS011;37929;53.218;6.548;2022-07-24T04:28:21;6.45;;;5.75;;
51901;SDS011;37929;53.218;6.548;2022-07-24T04:30:47;10.25;;;6.20;;
51901;SDS011;37929;53.218;6.548;2022-07-24T04:33:15;8.10;;;6.35;;
51901;SDS011;37929;53.218;6.548;2022-07-24T04:35:42;7.43;;;5.72;;
51901;SDS011;37929;53.218;6.548;2022-07-24T04:38:07;7.40;;;5.68;;
51901;SDS011;37929;53.218;6.548;2022-07-24T04:40:33;8.77;;;5.82;;
51901;SDS011;37929;53.218;6.548;2022-07-24T04:42:59;6.78;;;5.60;;
51901;SDS011;37929;53.218;6.548;2022-07-24T04:45:25;8.57;;;6.65;;
51901;SDS011;37929;53.218;6.548;2022-07-24T04:47:53;9.13;;;6.05;;
51901;SDS011;37929;53.218;6.548;2022-07-24T04:50:19;8.93;;;6.57;;
51901;SDS011;37929;53.218;6.548;2022-07-24T04:52:45;6.53;;;5.85;;
51901;SDS011;37929;53.218;6.548;2022-07-24T04:55:11;6.65;;;5.82;;
51901;SDS011;37929;53.218;6.548;2022-07-24T04:57:38;6.57;;;5.88;;
51901;SDS011;37929;53.218;6.548;2022-07-24T05:00:05;7.15;;;5.95;;
51901;SDS011;37929;53.218;6.548;2022-07-24T05:02:32;7.15;;;6.45;;
51901;SDS011;37929;53.218;6.548;2022-07-24T05:04:58;6.38;;;5.72;;
51901;SDS011;37929;53.218;6.548;2022-07-24T05:07:24;7.15;;;6.03;;
51901;SDS011;37929;53.218;6.548;2022-07-24T05:09:50;7.05;;;6.35;;
51901;SDS011;37929;53.218;6.548;2022-07-24T05:12:17;7.70;;;6.18;;
51901;SDS011;37929;53.218;6.548;2022-07-24T05:14:45;7.40;;;6.30;;
51901;SDS011;37929;53.218;6.548;2022-07-24T05:17:11;7.72;;;6.05;;
51901;SDS011;37929;53.218;6.548;2022-07-24T05:19:40;7.97;;;6.18;;
51901;SDS011;37929;53.218;6.548;2022-07-24T05:22:09;8.82;;;6.80;;
51901;SDS011;37929;53.218;6.548;2022-07-24T05:24:34;7.32;;;6.05;;
51901;SDS011;37929;53.218;6.548;2022-07-24T05:27:03;8.70;;;6.70;;
51901;SDS011;37929;53.218;6.548;2022-07-24T05:29:29;7.32;;;6.43;;
51901;SDS011;37929;53.218;6.548;2022-07-24T05:31:58;11.50;;;7.22;;
51901;SDS011;37929;53.218;6.548;2022-07-24T05:34:27;7.50;;;6.57;;
51901;SDS011;37929;53.218;6.548;2022-07-24T05:36:52;9.77;;;6.60;;
51901;SDS011;37929;53.218;6.548;2022-07-24T05:39:18;7.50;;;6.28;;
51901;SDS011;37929;53.218;6.548;2022-07-24T05:41:50;9.23;;;7.15;;
51901;SDS011;37929;53.218;6.548;2022-07-24T05:44:16;9.00;;;7.20;;
51901;SDS011;37929;53.218;6.548;2022-07-24T05:46:42;8.68;;;6.93;;
51901;SDS011;37929;53.218;6.548;2022-07-24T05:49:08;10.18;;;8.00;;
51901;SDS011;37929;53.218;6.548;2022-07-24T05:51:33;9.02;;;7.60;;
51901;SDS011;37929;53.218;6.548;2022-07-24T05:54:01;9.77;;;8.02;;
51901;SDS011;37929;53.218;6.548;2022-07-24T05:56:31;8.75;;;7.32;;
51901;SDS011;37929;53.218;6.548;2022-07-24T05:58:56;10.15;;;7.53;;
51901;SDS011;37929;53.218;6.548;2022-07-24T06:01:22;11.93;;;8.05;;
51901;SDS011;37929;53.218;6.548;2022-07-24T06:03:48;9.13;;;8.00;;
51901;SDS011;37929;53.218;6.548;2022-07-24T06:06:22;9.73;;;8.00;;
51901;SDS011;37929;53.218;6.548;2022-07-24T06:08:48;9.90;;;7.95;;
51901;SDS011;37929;53.218;6.548;2022-07-24T06:11:14;9.27;;;8.35;;
51901;SDS011;37929;53.218;6.548;2022-07-24T06:13:40;11.77;;;9.25;;
51901;SDS011;37929;53.218;6.548;2022-07-24T06:16:09;9.60;;;8.60;;
51901;SDS011;37929;53.218;6.548;2022-07-24T06:18:35;11.88;;;9.45;;
51901;SDS011;37929;53.218;6.548;2022-07-24T06:21:00;10.10;;;8.77;;
51901;SDS011;37929;53.218;6.548;2022-07-24T06:23:26;12.00;;;9.10;;
51901;SDS011;37929;53.218;6.548;2022-07-24T06:25:52;11.07;;;9.98;;
51901;SDS011;37929;53.218;6.548;2022-07-24T06:28:21;12.02;;;9.45;;
51901;SDS011;37929;53.218;6.548;2022-07-24T06:30:49;16.35;;;10.40;;
51901;SDS011;37929;53.218;6.548;2022-07-24T06:33:15;13.50;;;10.48;;
51901;SDS011;37929;53.218;6.548;2022-07-24T06:35:41;12.20;;;10.90;;
51901;SDS011;37929;53.218;6.548;2022-07-24T06:38:07;12.52;;;10.38;;
51901;SDS011;37929;53.218;6.548;2022-07-24T06:40:34;12.23;;;10.48;;
51901;SDS011;37929;53.218;6.548;2022-07-24T06:43:07;12.68;;;10.98;;
51901;SDS011;37929;53.218;6.548;2022-07-24T06:45:33;11.80;;;10.40;;
51901;SDS011;37929;53.218;6.548;2022-07-24T06:48:02;13.70;;;11.30;;
51901;SDS011;37929;53.218;6.548;2022-07-24T06:50:28;12.70;;;11.35;;
51901;SDS011;37929;53.218;6.548;2022-07-24T06:52:56;12.95;;;11.75;;
51901;SDS011;37929;53.218;6.548;2022-07-24T06:55:25;14.60;;;12.85;;
51901;SDS011;37929;53.218;6.548;2022-07-24T06:57:54;14.38;;;12.73;;
51901;SDS011;37929;53.218;6.548;2022-07-24T07:00:20;14.15;;;12.07;;
51901;SDS011;37929;53.218;6.548;2022-07-24T07:02:45;14.60;;;12.02;;
51901;SDS011;37929;53.218;6.548;2022-07-24T07:05:11;14.07;;;12.60;;
51901;SDS011;37929;53.218;6.548;2022-07-24T07:07:37;16.70;;;13.23;;
51901;SDS011;37929;53.218;6.548;2022-07-24T07:10:04;14.63;;;13.13;;
51901;SDS011;37929;53.218;6.548;2022-07-24T07:12:31;14.43;;;11.75;;
51901;SDS011;37929;53.218;6.548;2022-07-24T07:14:56;15.27;;;12.95;;
51901;SDS011;37929;53.218;6.548;2022-07-24T07:17:24;14.07;;;11.60;;
51901;SDS011;37929;53.218;6.548;2022-07-24T07:19:50;13.82;;;11.68;;
51901;SDS011;37929;53.218;6.548;2022-07-24T07:22:16;13.85;;;10.70;;
51901;SDS011;37929;53.218;6.548;2022-07-24T07:24:42;12.77;;;11.20;;
51901;SDS011;37929;53.218;6.548;2022-07-24T07:27:14;13.98;;;11.70;;
51901;SDS011;37929;53.218;6.548;2022-07-24T07:29:40;12.63;;;10.90;;
51901;SDS011;37929;53.218;6.548;2022-07-24T07:32:06;13.10;;;11.32;;
51901;SDS011;37929;53.218;6.548;2022-07-24T07:34:34;13.18;;;11.82;;
51901;SDS011;37929;53.218;6.548;2022-07-24T07:37:00;13.63;;;10.63;;
51901;SDS011;37929;53.218;6.548;2022-07-24T07:39:26;12.13;;;9.70;;
51901;SDS011;37929;53.218;6.548;2022-07-24T07:41:51;13.93;;;9.07;;
51901;SDS011;37929;53.218;6.548;2022-07-24T07:44:20;13.80;;;9.07;;
51901;SDS011;37929;53.218;6.548;2022-07-24T07:46:45;12.35;;;6.93;;
51901;SDS011;37929;53.218;6.548;2022-07-24T07:49:11;7.80;;;6.18;;
51901;SDS011;37929;53.218;6.548;2022-07-24T07:51:40;6.72;;;5.38;;
51901;SDS011;37929;53.218;6.548;2022-07-24T07:54:06;8.15;;;5.07;;
51901;SDS011;37929;53.218;6.548;2022-07-24T07:56:32;6.80;;;5.00;;
51901;SDS011;37929;53.218;6.548;2022-07-24T07:58:58;6.93;;;4.72;;
51901;SDS011;37929;53.218;6.548;2022-07-24T08:01:24;5.32;;;4.43;;
51901;SDS011;37929;53.218;6.548;2022-07-24T08:03:49;4.45;;;4.03;;
51901;SDS011;37929;53.218;6.548;2022-07-24T08:06:15;5.65;;;4.35;;
51901;SDS011;37929;53.218;6.548;2022-07-24T08:08:41;6.65;;;4.15;;
51901;SDS011;37929;53.218;6.548;2022-07-24T08:11:07;7.03;;;4.43;;
51901;SDS011;37929;53.218;6.548;2022-07-24T08:13:33;6.63;;;4.35;;
51901;SDS011;37929;53.218;6.548;2022-07-24T08:15:59;5.47;;;4.55;;
51901;SDS011;37929;53.218;6.548;2022-07-24T08:18:25;6.07;;;4.65;;
51901;SDS011;37929;53.218;6.548;2022-07-24T08:20:51;7.50;;;4.95;;
51901;SDS011;37929;53.218;6.548;2022-07-24T08:23:20;5.90;;;4.30;;
51901;SDS011;37929;53.218;6.548;2022-07-24T08:25:46;6.00;;;4.63;;
51901;SDS011;37929;53.218;6.548;2022-07-24T08:28:24;6.78;;;4.05;;
51901;SDS011;37929;53.218;6.548;2022-07-24T08:30:50;4.65;;;4.18;;
51901;SDS011;37929;53.218;6.548;2022-07-24T08:33:22;6.03;;;4.30;;
51901;SDS011;37929;53.218;6.548;2022-07-24T08:35:47;5.53;;;4.18;;
51901;SDS011;37929;53.218;6.548;2022-07-24T08:38:16;7.60;;;4.60;;
51901;SDS011;37929;53.218;6.548;2022-07-24T08:40:45;5.93;;;3.97;;
51901;SDS011;37929;53.218;6.548;2022-07-24T08:43:14;5.20;;;4.15;;
51901;SDS011;37929;53.218;6.548;2022-07-24T08:45:41;6.93;;;4.53;;
51901;SDS011;37929;53.218;6.548;2022-07-24T08:48:16;5.53;;;4.15;;
51901;SDS011;37929;53.218;6.548;2022-07-24T08:50:46;6.70;;;4.13;;
51901;SDS011;37929;53.218;6.548;2022-07-24T08:53:15;5.10;;;4.40;;
51901;SDS011;37929;53.218;6.548;2022-07-24T08:55:45;6.65;;;4.45;;
51901;SDS011;37929;53.218;6.548;2022-07-24T08:58:11;5.10;;;4.60;;
51901;SDS011;37929;53.218;6.548;2022-07-24T09:00:40;5.75;;;4.32;;
51901;SDS011;37929;53.218;6.548;2022-07-24T09:03:08;7.05;;;4.28;;
51901;SDS011;37929;53.218;6.548;2022-07-24T09:05:40;5.00;;;3.85;;
51901;SDS011;37929;53.218;6.548;2022-07-24T09:08:20;6.18;;;4.53;;
51901;SDS011;37929;53.218;6.548;2022-07-24T09:10:53;5.70;;;4.35;;
51901;SDS011;37929;53.218;6.548;2022-07-24T09:13:36;9.48;;;4.78;;
51901;SDS011;37929;53.218;6.548;2022-07-24T09:16:25;4.70;;;4.10;;
51901;SDS011;37929;53.218;6.548;2022-07-24T09:19:01;4.40;;;4.00;;
51901;SDS011;37929;53.218;6.548;2022-07-24T09:21:33;6.18;;;4.40;;
51901;SDS011;37929;53.218;6.548;2022-07-24T09:24:00;5.57;;;4.13;;
51901;SDS011;37929;53.218;6.548;2022-07-24T09:26:42;6.30;;;4.38;;
51901;SDS011;37929;53.218;6.548;2022-07-24T09:29:10;4.88;;;3.95;;
51901;SDS011;37929;53.218;6.548;2022-07-24T09:31:50;5.32;;;4.00;;
51901;SDS011;37929;53.218;6.548;2022-07-24T09:34:19;5.90;;;4.28;;
51901;SDS011;37929;53.218;6.548;2022-07-24T09:37:05;8.82;;;3.95;;
51901;SDS011;37929;53.218;6.548;2022-07-24T09:39:33;4.72;;;3.83;;
51901;SDS011;37929;53.218;6.548;2022-07-24T09:42:03;4.28;;;3.80;;
51901;SDS011;37929;53.218;6.548;2022-07-24T09:44:30;9.00;;;4.05;;
51901;SDS011;37929;53.218;6.548;2022-07-24T09:46:58;4.90;;;3.92;;
51901;SDS011;37929;53.218;6.548;2022-07-24T09:49:25;6.88;;;3.78;;
51901;SDS011;37929;53.218;6.548;2022-07-24T09:54:31;5.97;;;3.50;;
51901;SDS011;37929;53.218;6.548;2022-07-24T09:59:53;5.35;;;3.40;;
51901;SDS011;37929;53.218;6.548;2022-07-24T10:02:30;6.28;;;3.20;;
51901;SDS011;37929;53.218;6.548;2022-07-24T10:05:05;7.85;;;3.22;;
51901;SDS011;37929;53.218;6.548;2022-07-24T10:07:34;6.93;;;3.85;;
51901;SDS011;37929;53.218;6.548;2022-07-24T10:10:04;5.07;;;3.20;;
51901;SDS011;37929;53.218;6.548;2022-07-24T10:12:31;4.85;;;3.45;;
51901;SDS011;37929;53.218;6.548;2022-07-24T10:14:57;5.75;;;2.75;;
51901;SDS011;37929;53.218;6.548;2022-07-24T10:18:25;4.45;;;2.97;;
51901;SDS011;37929;53.218;6.548;2022-07-24T10:20:25;4.35;;;3.10;;
51901;SDS011;37929;53.218;6.548;2022-07-24T10:23:30;6.35;;;3.35;;
51901;SDS011;37929;53.218;6.548;2022-07-24T10:26:46;5.22;;;2.92;;
51901;SDS011;37929;53.218;6.548;2022-07-24T10:29:18;4.18;;;2.97;;
51901;SDS011;37929;53.218;6.548;2022-07-24T10:31:50;3.35;;;2.80;;
51901;SDS011;37929;53.218;6.548;2022-07-24T10:43:21;4.18;;;2.80;;
51901;SDS011;37929;53.218;6.548;2022-07-24T10:45:31;5.65;;;3.22;;
51901;SDS011;37929;53.218;6.548;2022-07-24T10:47:58;6.70;;;3.15;;
51901;SDS011;37929;53.218;6.548;2022-07-24T10:51:26;4.28;;;2.95;;
51901;SDS011;37929;53.218;6.548;2022-07-24T11:04:24;3.78;;;2.63;;
51901;SDS011;37929;53.218;6.548;2022-07-24T11:12:30;4.72;;;3.17;;
51901;SDS011;37929;53.218;6.548;2022-07-24T11:15:01;4.85;;;3.20;;
51901;SDS011;37929;53.218;6.548;2022-07-24T11:17:51;6.72;;;3.22;;
51901;SDS011;37929;53.218;6.548;2022-07-24T11:20:37;5.60;;;3.17;;
51901;SDS011;37929;53.218;6.548;2022-07-24T11:23:04;5.70;;;3.58;;
51901;SDS011;37929;53.218;6.548;2022-07-24T11:25:45;3.95;;;2.72;;
51901;SDS011;37929;53.218;6.548;2022-07-24T11:28:12;6.13;;;2.95;;
51901;SDS011;37929;53.218;6.548;2022-07-24T11:30:46;4.30;;;2.90;;
51901;SDS011;37929;53.218;6.548;2022-07-24T11:33:17;4.55;;;3.33;;
51901;SDS011;37929;53.218;6.548;2022-07-24T11:35:46;4.45;;;3.08;;
51901;SDS011;37929;53.218;6.548;2022-07-24T11:38:12;5.75;;;3.00;;
51901;SDS011;37929;53.218;6.548;2022-07-24T11:40:40;3.40;;;2.92;;
51901;SDS011;37929;53.218;6.548;2022-07-24T11:43:08;6.50;;;3.10;;
51901;SDS011;37929;53.218;6.548;2022-07-24T11:45:38;6.13;;;5.13;;
51901;SDS011;37929;53.218;6.548;2022-07-24T11:48:04;4.20;;;3.25;;
51901;SDS011;37929;53.218;6.548;2022-07-24T11:50:30;3.90;;;3.00;;
51901;SDS011;37929;53.218;6.548;2022-07-24T11:53:19;4.82;;;2.95;;
51901;SDS011;37929;53.218;6.548;2022-07-24T11:56:01;4.03;;;3.35;;
51901;SDS011;37929;53.218;6.548;2022-07-24T11:58:28;5.20;;;2.90;;
51901;SDS011;37929;53.218;6.548;2022-07-24T12:00:54;4.65;;;2.78;;
51901;SDS011;37929;53.218;6.548;2022-07-24T12:03:23;4.22;;;2.95;;
51901;SDS011;37929;53.218;6.548;2022-07-24T12:05:49;4.38;;;2.70;;
51901;SDS011;37929;53.218;6.548;2022-07-24T12:08:21;3.30;;;2.92;;
51901;SDS011;37929;53.218;6.548;2022-07-24T12:10:57;4.65;;;3.03;;
51901;SDS011;37929;53.218;6.548;2022-07-24T12:13:24;4.70;;;2.97;;
51901;SDS011;37929;53.218;6.548;2022-07-24T12:15:50;5.00;;;2.92;;
51901;SDS011;37929;53.218;6.548;2022-07-24T12:18:19;4.57;;;2.80;;
51901;SDS011;37929;53.218;6.548;2022-07-24T12:20:45;6.15;;;3.10;;
51901;SDS011;37929;53.218;6.548;2022-07-24T12:23:13;4.05;;;2.80;;
51901;SDS011;37929;53.218;6.548;2022-07-24T12:25:48;4.65;;;3.00;;
51901;SDS011;37929;53.218;6.548;2022-07-24T12:28:17;3.55;;;2.75;;
51901;SDS011;37929;53.218;6.548;2022-07-24T12:30:47;4.75;;;2.72;;
51901;SDS011;37929;53.218;6.548;2022-07-24T12:38:51;3.58;;;2.60;;
51901;SDS011;37929;53.218;6.548;2022-07-24T12:41:21;3.38;;;2.72;;
51901;SDS011;37929;53.218;6.548;2022-07-24T12:46:22;3.28;;;2.95;;
51901;SDS011;37929;53.218;6.548;2022-07-24T12:49:03;5.80;;;3.47;;
51901;SDS011;37929;53.218;6.548;2022-07-24T12:54:33;4.65;;;3.03;;
51901;SDS011;37929;53.218;6.548;2022-07-24T12:57:11;4.38;;;2.80;;
51901;SDS011;37929;53.218;6.548;2022-07-24T12:59:39;5.65;;;3.05;;
51901;SDS011;37929;53.218;6.548;2022-07-24T13:02:10;6.57;;;2.90;;
51901;SDS011;37929;53.218;6.548;2022-07-24T13:07:16;3.95;;;2.88;;
51901;SDS011;37929;53.218;6.548;2022-07-24T13:09:43;3.83;;;2.85;;
51901;SDS011;37929;53.218;6.548;2022-07-24T13:12:18;3.55;;;2.78;;
51901;SDS011;37929;53.218;6.548;2022-07-24T13:14:49;3.90;;;2.67;;
51901;SDS011;37929;53.218;6.548;2022-07-24T13:17:16;3.42;;;3.00;;
51901;SDS011;37929;53.218;6.548;2022-07-24T13:19:45;4.30;;;2.65;;
51901;SDS011;37929;53.218;6.548;2022-07-24T13:22:12;3.78;;;3.00;;
51901;SDS011;37929;53.218;6.548;2022-07-24T13:24:42;4.63;;;2.67;;
51901;SDS011;37929;53.218;6.548;2022-07-24T13:27:10;4.55;;;3.00;;
51901;SDS011;37929;53.218;6.548;2022-07-24T13:29:43;3.70;;;2.70;;
51901;SDS011;37929;53.218;6.548;2022-07-24T13:32:18;5.00;;;2.85;;
51901;SDS011;37929;53.218;6.548;2022-07-24T13:34:45;3.10;;;2.55;;
51901;SDS011;37929;53.218;6.548;2022-07-24T13:37:11;4.35;;;3.00;;
51901;SDS011;37929;53.218;6.548;2022-07-24T13:39:37;4.85;;;2.83;;
51901;SDS011;37929;53.218;6.548;2022-07-24T13:42:05;3.90;;;2.90;;
51901;SDS011;37929;53.218;6.548;2022-07-24T13:44:31;4.75;;;3.03;;
51901;SDS011;37929;53.218;6.548;2022-07-24T13:47:00;4.32;;;3.03;;
51901;SDS011;37929;53.218;6.548;2022-07-24T13:49:28;4.43;;;2.70;;
51901;SDS011;37929;53.218;6.548;2022-07-24T13:51:54;6.53;;;2.97;;
51901;SDS011;37929;53.218;6.548;2022-07-24T13:54:23;5.03;;;2.92;;
51901;SDS011;37929;53.218;6.548;2022-07-24T13:56:48;5.72;;;3.10;;
51901;SDS011;37929;53.218;6.548;2022-07-24T13:59:15;3.83;;;3.00;;
51901;SDS011;37929;53.218;6.548;2022-07-24T14:01:43;3.95;;;3.10;;
51901;SDS011;37929;53.218;6.548;2022-07-24T14:04:09;4.47;;;3.25;;
51901;SDS011;37929;53.218;6.548;2022-07-24T14:06:38;5.15;;;3.00;;
51901;SDS011;37929;53.218;6.548;2022-07-24T14:09:03;4.00;;;2.88;;
51901;SDS011;37929;53.218;6.548;2022-07-24T14:11:30;3.47;;;2.90;;
51901;SDS011;37929;53.218;6.548;2022-07-24T14:13:56;4.80;;;2.95;;
51901;SDS011;37929;53.218;6.548;2022-07-24T14:16:25;3.17;;;2.47;;
51901;SDS011;37929;53.218;6.548;2022-07-24T14:18:51;4.47;;;3.30;;
51901;SDS011;37929;53.218;6.548;2022-07-24T14:21:17;4.47;;;3.03;;
51901;SDS011;37929;53.218;6.548;2022-07-24T14:23:48;5.03;;;2.92;;
51901;SDS011;37929;53.218;6.548;2022-07-24T14:26:14;3.97;;;2.83;;
51901;SDS011;37929;53.218;6.548;2022-07-24T14:28:42;4.40;;;3.05;;
51901;SDS011;37929;53.218;6.548;2022-07-24T14:31:08;4.55;;;2.75;;
51901;SDS011;37929;53.218;6.548;2022-07-24T14:33:36;4.07;;;3.00;;
51901;SDS011;37929;53.218;6.548;2022-07-24T14:36:08;4.85;;;3.08;;
51901;SDS011;37929;53.218;6.548;2022-07-24T14:38:34;4.30;;;3.20;;
51901;SDS011;37929;53.218;6.548;2022-07-24T14:41:00;4.13;;;3.00;;
51901;SDS011;37929;53.218;6.548;2022-07-24T14:43:26;4.22;;;2.72;;
51901;SDS011;37929;53.218;6.548;2022-07-24T14:45:52;6.82;;;3.03;;
51901;SDS011;37929;53.218;6.548;2022-07-24T14:48:22;5.70;;;2.90;;
51901;SDS011;37929;53.218;6.548;2022-07-24T14:50:50;5.03;;;2.92;;
51901;SDS011;37929;53.218;6.548;2022-07-24T14:53:21;5.55;;;2.92;;
51901;SDS011;37929;53.218;6.548;2022-07-24T14:55:53;4.20;;;3.05;;
51901;SDS011;37929;53.218;6.548;2022-07-24T14:58:22;4.32;;;2.83;;
51901;SDS011;37929;53.218;6.548;2022-07-24T15:00:51;4.30;;;3.30;;
51901;SDS011;37929;53.218;6.548;2022-07-24T15:03:23;3.75;;;2.67;;
51901;SDS011;37929;53.218;6.548;2022-07-24T15:05:51;4.20;;;3.03;;
51901;SDS011;37929;53.218;6.548;2022-07-24T15:08:20;3.92;;;3.17;;
51901;SDS011;37929;53.218;6.548;2022-07-24T15:10:46;4.38;;;2.95;;
51901;SDS011;37929;53.218;6.548;2022-07-24T15:13:12;5.25;;;3.20;;
51901;SDS011;37929;53.218;6.548;2022-07-24T15:15:37;4.63;;;3.17;;
51901;SDS011;37929;53.218;6.548;2022-07-24T15:18:09;5.43;;;3.25;;
51901;SDS011;37929;53.218;6.548;2022-07-24T15:20:35;5.80;;;3.60;;
51901;SDS011;37929;53.218;6.548;2022-07-24T15:23:00;5.28;;;3.05;;
51901;SDS011;37929;53.218;6.548;2022-07-24T15:25:26;5.05;;;3.13;;
51901;SDS011;37929;53.218;6.548;2022-07-24T15:27:52;4.28;;;2.90;;
51901;SDS011;37929;53.218;6.548;2022-07-24T15:30:21;7.15;;;3.17;;
51901;SDS011;37929;53.218;6.548;2022-07-24T15:32:47;3.88;;;2.90;;
51901;SDS011;37929;53.218;6.548;2022-07-24T15:35:18;4.45;;;3.60;;
51901;SDS011;37929;53.218;6.548;2022-07-24T15:37:44;5.45;;;3.25;;